Time;durP1;ratioP1;P1;durP2;ratioP2;P2;SDS_P1;SDS_P2;PMS_P1;PMS_P2;Temp;Humidity;BMP_temperature;BMP_pressure;BME280_temperature;BME280_humidity;BME280_pressure;Samples;Min_cycle;Max_cycle;Signal;HPM_P1;HPM_P2
2024/02/11 00:02:16;;;;;;;39.67;32.08;;;;;;;;;;5066616;28;25056;-70
2024/02/11 00:04:45;;;;;;;46.28;34.42;;;;;;;;;;5073911;28;25112;-72
2024/02/11 00:07:11;;;;;;;54.53;36.38;;;;;;;;;;5062368;28;25089;-72
2024/02/11 00:09:38;;;;;;;54.47;39.40;;;;;;;;;;5067597;28;25106;-70
2024/02/11 00:12:08;;;;;;;50.05;37.47;;;;;;;;;;5068079;28;25060;-74
2024/02/11 00:14:34;;;;;;;54.42;37.15;;;;;;;;;;5069620;28;25142;-73
2024/02/11 00:17:00;;;;;;;56.95;40.17;;;;;;;;;;5067651;28;25080;-74
2024/02/11 00:19:27;;;;;;;59.58;40.00;;;;;;;;;;5057688;28;25079;-75
2024/02/11 00:21:56;;;;;;;55.58;39.08;;;;;;;;;;5061808;28;25056;-71
2024/02/11 00:24:23;;;;;;;52.38;37.33;;;;;;;;;;5068459;28;25132;-72
2024/02/11 00:26:49;;;;;;;58.90;40.78;;;;;;;;;;5069208;28;25060;-72
2024/02/11 00:29:17;;;;;;;61.08;41.45;;;;;;;;;;5062003;28;25100;-77
2024/02/11 00:31:43;;;;;;;52.33;37.70;;;;;;;;;;5065902;28;25048;-75
2024/02/11 00:34:10;;;;;;;67.68;45.65;;;;;;;;;;5069191;28;25095;-73
2024/02/11 00:36:36;;;;;;;58.28;41.03;;;;;;;;;;5061959;28;25089;-74
2024/02/11 00:39:02;;;;;;;64.38;42.80;;;;;;;;;;5059887;28;25057;-73
2024/02/11 00:41:28;;;;;;;75.45;48.35;;;;;;;;;;5069751;28;25068;-72
2024/02/11 00:43:55;;;;;;;65.88;44.40;;;;;;;;;;5063122;28;25069;-74
2024/02/11 00:46:21;;;;;;;68.20;45.60;;;;;;;;;;5070202;28;25046;-77
2024/02/11 00:48:47;;;;;;;69.88;45.92;;;;;;;;;;5065223;28;25051;-74
2024/02/11 00:51:14;;;;;;;76.45;49.75;;;;;;;;;;5060060;28;25077;-77
2024/02/11 00:53:40;;;;;;;70.32;45.13;;;;;;;;;;5061741;28;25061;-72
2024/02/11 00:56:08;;;;;;;74.50;48.88;;;;;;;;;;5065810;28;25137;-74
2024/02/11 00:58:34;;;;;;;77.03;48.97;;;;;;;;;;5063076;28;25060;-74
2024/02/11 01:01:05;;;;;;;69.78;45.95;;;;;;;;;;5058525;28;25057;-75
2024/02/11 01:03:31;;;;;;;71.50;46.67;;;;;;;;;;5065610;28;25049;-74
2024/02/11 01:05:57;;;;;;;76.97;48.72;;;;;;;;;;5067677;28;25083;-73
2024/02/11 01:08:25;;;;;;;79.80;51.03;;;;;;;;;;5065569;28;25084;-73
2024/02/11 01:10:51;;;;;;;74.85;47.33;;;;;;;;;;5055714;28;25058;-74
2024/02/11 01:13:18;;;;;;;75.65;49.55;;;;;;;;;;5062098;28;25128;-74
2024/02/11 01:15:44;;;;;;;78.95;49.72;;;;;;;;;;5063151;28;25169;-71
2024/02/11 01:18:11;;;;;;;79.68;51.78;;;;;;;;;;5058702;28;25063;-75
2024/02/11 01:20:37;;;;;;;78.70;52.58;;;;;;;;;;5072671;28;25078;-74
2024/02/11 01:23:03;;;;;;;76.97;50.38;;;;;;;;;;5072491;28;25066;-73
2024/02/11 01:25:30;;;;;;;78.03;49.63;;;;;;;;;;5080885;28;25067;-74
2024/02/11 01:27:56;;;;;;;74.40;49.65;;;;;;;;;;5087719;28;25101;-75
2024/02/11 01:30:24;;;;;;;77.97;48.63;;;;;;;;;;5076706;28;25047;-73
2024/02/11 01:32:54;;;;;;;89.25;55.03;;;;;;;;;;5070434;28;25097;-74
2024/02/11 01:35:22;;;;;;;81.00;49.70;;;;;;;;;;5073590;28;25071;-75
2024/02/11 01:37:48;;;;;;;74.25;49.03;;;;;;;;;;5079679;28;25065;-73
2024/02/11 01:40:15;;;;;;;77.43;51.00;;;;;;;;;;5081848;28;25068;-73
2024/02/11 01:42:44;;;;;;;76.18;50.15;;;;;;;;;;5077567;28;25049;-71
2024/02/11 01:45:10;;;;;;;77.95;50.22;;;;;;;;;;5075790;28;25066;-71
2024/02/11 01:47:36;;;;;;;77.93;49.50;;;;;;;;;;5066202;28;25436;-73
2024/02/11 01:50:15;;;;;;;80.15;50.58;;;;;;;;;;5062155;28;25051;-73
2024/02/11 01:52:41;;;;;;;70.35;48.58;;;;;;;;;;5063129;28;25073;-72
2024/02/11 01:55:10;;;;;;;67.93;46.33;;;;;;;;;;5057146;28;25071;-74
2024/02/11 01:57:36;;;;;;;79.40;50.88;;;;;;;;;;5070270;28;25098;-73
2024/02/11 02:00:02;;;;;;;76.18;48.78;;;;;;;;;;5066393;28;25094;-72
2024/02/11 02:02:29;;;;;;;75.32;48.88;;;;;;;;;;5057159;28;25167;-72
2024/02/11 02:04:55;;;;;;;78.57;49.33;;;;;;;;;;5060377;28;25080;-72
2024/02/11 02:07:21;;;;;;;90.20;55.67;;;;;;;;;;5056847;28;25064;-72
2024/02/11 02:09:49;;;;;;;73.70;49.80;;;;;;;;;;5063854;28;25077;-74
2024/02/11 02:12:17;;;;;;;89.38;53.63;;;;;;;;;;5062499;28;25137;-73
2024/02/11 02:14:43;;;;;;;87.68;52.80;;;;;;;;;;5066473;28;25064;-75
2024/02/11 02:17:09;;;;;;;82.93;51.63;;;;;;;;;;5061099;28;25082;-76
2024/02/11 02:19:36;;;;;;;81.32;52.65;;;;;;;;;;5048979;28;25156;-73
2024/02/11 02:22:02;;;;;;;90.38;53.67;;;;;;;;;;5054644;28;25078;-73
2024/02/11 02:24:28;;;;;;;81.70;51.28;;;;;;;;;;5064154;28;25176;-76
2024/02/11 02:26:54;;;;;;;97.63;57.10;;;;;;;;;;5065054;28;25060;-74
2024/02/11 02:29:20;;;;;;;75.80;48.65;;;;;;;;;;5058997;28;25134;-74
2024/02/11 02:31:46;;;;;;;98.55;56.78;;;;;;;;;;5065889;28;25101;-73
2024/02/11 02:34:12;;;;;;;93.18;53.28;;;;;;;;;;5061574;28;25053;-74
2024/02/11 02:36:40;;;;;;;96.65;55.75;;;;;;;;;;5063370;28;25087;-73
2024/02/11 02:39:06;;;;;;;84.35;51.83;;;;;;;;;;5057097;28;25051;-75
2024/02/11 02:41:32;;;;;;;81.13;51.00;;;;;;;;;;5055528;28;25134;-72
2024/02/11 02:43:59;;;;;;;93.20;55.10;;;;;;;;;;5061963;28;25067;-73
2024/02/11 02:46:28;;;;;;;88.38;54.78;;;;;;;;;;5064005;28;25070;-73
2024/02/11 02:48:54;;;;;;;81.55;48.80;;;;;;;;;;5059395;28;25129;-73
2024/02/11 02:51:20;;;;;;;100.82;57.30;;;;;;;;;;5061891;28;25073;-73
2024/02/11 02:53:49;;;;;;;81.43;51.63;;;;;;;;;;5062547;28;25059;-73
2024/02/11 02:56:15;;;;;;;99.25;57.97;;;;;;;;;;5058336;28;25137;-73
2024/02/11 02:58:42;;;;;;;100.72;59.22;;;;;;;;;;5050101;28;25190;-71
2024/02/11 03:01:08;;;;;;;76.25;51.97;;;;;;;;;;5052875;28;25151;-73
2024/02/11 03:03:34;;;;;;;109.75;62.17;;;;;;;;;;5055574;28;25065;-72
2024/02/11 03:06:01;;;;;;;83.32;52.25;;;;;;;;;;5058101;28;25161;-72
2024/02/11 03:08:27;;;;;;;92.22;57.63;;;;;;;;;;5068772;28;25070;-71
2024/02/11 03:10:53;;;;;;;97.35;56.15;;;;;;;;;;5064968;28;25062;-72
2024/02/11 03:13:19;;;;;;;96.10;59.03;;;;;;;;;;5061063;28;25103;-72
2024/02/11 03:15:45;;;;;;;71.90;50.70;;;;;;;;;;5070610;28;25136;-72
2024/02/11 03:18:11;;;;;;;91.43;53.78;;;;;;;;;;5067214;28;25150;-74
2024/02/11 03:20:37;;;;;;;78.05;53.00;;;;;;;;;;5066949;28;25141;-72
2024/02/11 03:23:07;;;;;;;85.10;53.72;;;;;;;;;;5057499;28;25089;-72
2024/02/11 03:25:33;;;;;;;89.88;54.55;;;;;;;;;;5056124;28;25074;-73
2024/02/11 03:27:59;;;;;;;98.18;56.17;;;;;;;;;;5085615;28;25060;-73
2024/02/11 03:30:26;;;;;;;106.85;56.42;;;;;;;;;;5075369;28;25117;-73
2024/02/11 03:32:52;;;;;;;103.82;57.15;;;;;;;;;;5089566;28;25071;-72
2024/02/11 03:35:19;;;;;;;93.65;55.85;;;;;;;;;;5070551;28;25082;-75
2024/02/11 03:37:46;;;;;;;81.78;51.78;;;;;;;;;;5076089;28;25080;-74
2024/02/11 03:40:16;;;;;;;93.80;52.78;;;;;;;;;;5065438;28;25090;-73
2024/02/11 03:42:42;;;;;;;89.57;52.85;;;;;;;;;;5066366;28;25099;-73
2024/02/11 03:45:11;;;;;;;107.53;58.22;;;;;;;;;;5058751;28;25058;-72
2024/02/11 03:47:37;;;;;;;94.57;53.20;;;;;;;;;;5061226;28;25055;-72
2024/02/11 03:50:04;;;;;;;109.30;56.20;;;;;;;;;;5061067;28;25075;-72
2024/02/11 03:52:34;;;;;;;103.75;55.88;;;;;;;;;;5063892;28;25100;-71
2024/02/11 03:55:01;;;;;;;78.88;48.17;;;;;;;;;;5054550;28;25083;-73
2024/02/11 03:57:27;;;;;;;60.92;42.70;;;;;;;;;;5061080;28;25066;-71
2024/02/11 03:59:53;;;;;;;109.32;54.92;;;;;;;;;;5062320;28;25094;-73
2024/02/11 04:02:19;;;;;;;68.68;45.88;;;;;;;;;;5067690;28;25054;-73
2024/02/11 04:04:45;;;;;;;95.30;55.15;;;;;;;;;;5061237;28;25133;-73
2024/02/11 04:07:13;;;;;;;100.35;50.35;;;;;;;;;;5065842;28;25068;-72
2024/02/11 04:09:42;;;;;;;108.60;56.90;;;;;;;;;;5066860;28;25067;-76
2024/02/11 04:12:11;;;;;;;108.00;54.63;;;;;;;;;;5065908;28;25097;-74
2024/02/11 04:14:40;;;;;;;77.63;47.50;;;;;;;;;;5069838;28;25073;-74
2024/02/11 04:17:12;;;;;;;79.35;49.03;;;;;;;;;;5065094;28;25059;-75
2024/02/11 04:19:39;;;;;;;96.22;54.13;;;;;;;;;;5070178;28;25128;-72
2024/02/11 04:22:05;;;;;;;94.45;49.13;;;;;;;;;;5064361;28;25072;-74
2024/02/11 04:24:31;;;;;;;150.43;62.03;;;;;;;;;;5067177;28;25066;-71
2024/02/11 04:26:57;;;;;;;99.13;51.15;;;;;;;;;;5062214;28;25122;-73
2024/02/11 04:29:23;;;;;;;96.10;50.85;;;;;;;;;;5056839;28;25170;-72
2024/02/11 04:31:53;;;;;;;69.55;41.47;;;;;;;;;;5063419;28;25056;-72
2024/02/11 04:34:21;;;;;;;107.82;49.38;;;;;;;;;;5064649;28;25072;-74
2024/02/11 04:36:48;;;;;;;69.85;41.03;;;;;;;;;;5067267;28;25072;-75
2024/02/11 04:39:15;;;;;;;79.45;43.38;;;;;;;;;;5072010;28;25063;-76
2024/02/11 04:41:41;;;;;;;42.97;25.50;;;;;;;;;;5072958;28;25065;-75
2024/02/11 04:44:07;;;;;;;31.95;16.45;;;;;;;;;;5070287;28;25068;-74
2024/02/11 04:46:34;;;;;;;28.08;16.02;;;;;;;;;;5063060;28;25064;-72
2024/02/11 04:49:00;;;;;;;23.90;15.07;;;;;;;;;;5072678;28;25084;-71
2024/02/11 04:51:29;;;;;;;28.48;17.00;;;;;;;;;;5062628;28;25068;-72
2024/02/11 04:53:58;;;;;;;29.92;16.15;;;;;;;;;;5061421;28;25091;-72
2024/02/11 04:56:28;;;;;;;31.50;17.13;;;;;;;;;;5066842;28;25100;-72
2024/02/11 04:58:54;;;;;;;31.20;16.48;;;;;;;;;;5068949;28;25102;-73
2024/02/11 05:01:20;;;;;;;26.38;13.45;;;;;;;;;;5060292;28;25101;-74
2024/02/11 05:03:47;;;;;;;29.20;14.35;;;;;;;;;;5064914;28;25062;-72
2024/02/11 05:06:18;;;;;;;25.02;11.70;;;;;;;;;;5065021;28;25068;-73
2024/02/11 05:08:44;;;;;;;37.25;14.82;;;;;;;;;;5060084;28;25108;-72
2024/02/11 05:11:10;;;;;;;37.17;15.48;;;;;;;;;;5067785;28;25075;-72
2024/02/11 05:13:37;;;;;;;22.63;12.18;;;;;;;;;;5060894;28;25098;-74
2024/02/11 05:16:05;;;;;;;24.85;12.70;;;;;;;;;;5066321;28;25052;-72
2024/02/11 05:18:32;;;;;;;23.95;12.57;;;;;;;;;;5063327;28;25066;-71
2024/02/11 05:21:02;;;;;;;28.75;13.68;;;;;;;;;;5061258;28;25114;-73
2024/02/11 05:23:33;;;;;;;26.67;12.82;;;;;;;;;;5056308;28;25090;-73
2024/02/11 05:26:01;;;;;;;27.23;13.15;;;;;;;;;;5060596;28;25066;-72
2024/02/11 05:28:27;;;;;;;29.55;12.88;;;;;;;;;;5057327;28;25049;-73
2024/02/11 05:30:55;;;;;;;33.13;14.23;;;;;;;;;;5056561;28;25139;-74
2024/02/11 05:33:22;;;;;;;26.58;13.32;;;;;;;;;;5066211;28;25052;-71
2024/02/11 05:35:48;;;;;;;32.63;14.93;;;;;;;;;;5058453;28;25064;-73
2024/02/11 05:38:15;;;;;;;38.60;16.95;;;;;;;;;;5061308;28;25057;-73
2024/02/11 05:40:42;;;;;;;36.45;18.02;;;;;;;;;;5066804;28;25067;-71
2024/02/11 05:43:12;;;;;;;38.67;18.80;;;;;;;;;;5063472;28;25072;-72
2024/02/11 05:45:38;;;;;;;45.70;21.65;;;;;;;;;;5059440;28;25132;-74
2024/02/11 05:48:09;;;;;;;51.70;23.65;;;;;;;;;;5064649;28;25080;-76
2024/02/11 05:50:36;;;;;;;53.00;24.40;;;;;;;;;;5062744;28;25124;-73
2024/02/11 05:53:02;;;;;;;57.03;25.92;;;;;;;;;;5061152;28;25060;-71
2024/02/11 05:55:28;;;;;;;56.05;23.48;;;;;;;;;;5063938;28;25071;-72
2024/02/11 05:57:54;;;;;;;62.45;26.27;;;;;;;;;;5055839;28;25141;-75
2024/02/11 06:00:22;;;;;;;56.53;24.30;;;;;;;;;;5053712;28;25085;-74
2024/02/11 06:02:55;;;;;;;60.00;25.63;;;;;;;;;;5053463;28;25065;-73
2024/02/11 06:05:22;;;;;;;67.15;23.88;;;;;;;;;;5057543;28;25055;-73
2024/02/11 06:07:51;;;;;;;58.92;22.65;;;;;;;;;;5058669;28;25074;-75
2024/02/11 06:10:22;;;;;;;51.00;24.42;;;;;;;;;;5064790;28;25084;-73
2024/02/11 06:12:48;;;;;;;64.40;26.98;;;;;;;;;;5065452;28;25054;-72
2024/02/11 06:15:21;;;;;;;59.97;25.27;;;;;;;;;;5058889;28;25084;-73
2024/02/11 06:17:53;;;;;;;58.95;25.55;;;;;;;;;;5056662;28;25069;-74
2024/02/11 06:20:19;;;;;;;64.25;26.02;;;;;;;;;;5061550;28;25073;-74
2024/02/11 06:22:46;;;;;;;53.08;22.80;;;;;;;;;;5053556;28;25054;-73
2024/02/11 06:25:14;;;;;;;54.97;24.25;;;;;;;;;;5053360;28;25099;-73
2024/02/11 06:27:40;;;;;;;51.60;24.38;;;;;;;;;;5056685;28;25057;-73
2024/02/11 06:30:12;;;;;;;52.47;22.95;;;;;;;;;;5051181;28;25095;-74
2024/02/11 06:32:42;;;;;;;62.50;25.10;;;;;;;;;;5046457;28;25063;-73
2024/02/11 06:35:09;;;;;;;61.78;25.88;;;;;;;;;;5053896;28;25088;-73
2024/02/11 06:37:38;;;;;;;50.17;25.48;;;;;;;;;;5044394;28;25144;-74
2024/02/11 06:40:11;;;;;;;56.97;25.10;;;;;;;;;;5045968;28;25083;-74
2024/02/11 06:42:36;;;;;;;;;;;;;;;;;;5063729;28;25063;-73
2024/02/11 06:45:03;;;;;;;51.45;23.58;;;;;;;;;;5049333;28;25072;-74
2024/02/11 06:47:30;;;;;;;53.72;21.65;;;;;;;;;;5060204;28;25135;-74
2024/02/11 06:49:56;;;;;;;51.53;23.10;;;;;;;;;;5051162;28;25063;-73
2024/02/11 06:52:24;;;;;;;50.65;21.23;;;;;;;;;;5059305;28;25118;-74
2024/02/11 06:54:53;;;;;;;59.38;23.75;;;;;;;;;;5055595;28;25137;-74
2024/02/11 06:57:20;;;;;;;59.30;23.30;;;;;;;;;;5055872;28;25144;-73
2024/02/11 06:59:47;;;;;;;51.42;22.52;;;;;;;;;;5060688;28;25067;-74
2024/02/11 07:02:14;;;;;;;54.30;23.83;;;;;;;;;;5056747;28;25073;-73
2024/02/11 07:04:41;;;;;;;60.08;24.15;;;;;;;;;;5059093;28;25098;-75
2024/02/11 07:07:08;;;;;;;52.75;22.83;;;;;;;;;;5053843;28;25052;-72
2024/02/11 07:09:34;;;;;;;46.35;22.13;;;;;;;;;;5060321;28;25055;-73
2024/02/11 07:12:01;;;;;;;49.45;20.58;;;;;;;;;;5058970;28;25125;-74
2024/02/11 07:14:27;;;;;;;53.53;21.30;;;;;;;;;;5061987;28;25152;-73
2024/02/11 07:16:53;;;;;;;56.63;22.58;;;;;;;;;;5060128;28;25134;-76
2024/02/11 07:19:24;;;;;;;39.70;18.63;;;;;;;;;;5059211;28;25126;-73
2024/02/11 07:21:52;;;;;;;47.65;20.42;;;;;;;;;;5052464;28;25185;-74
2024/02/11 07:24:18;;;;;;;44.78;19.73;;;;;;;;;;5064218;28;25072;-74
2024/02/11 07:26:44;;;;;;;43.45;19.25;;;;;;;;;;5066573;28;25063;-74
2024/02/11 07:29:10;;;;;;;41.90;19.30;;;;;;;;;;5056492;28;25084;-74
2024/02/11 07:31:37;;;;;;;46.80;19.38;;;;;;;;;;5059852;28;25067;-74
2024/02/11 07:34:04;;;;;;;48.55;20.95;;;;;;;;;;5052715;28;25074;-72
2024/02/11 07:36:30;;;;;;;43.10;19.60;;;;;;;;;;5061845;28;25060;-71
2024/02/11 07:38:56;;;;;;;48.15;20.60;;;;;;;;;;5058122;28;25059;-72
2024/02/11 07:41:23;;;;;;;43.55;21.00;;;;;;;;;;5063277;28;25049;-74
2024/02/11 07:43:53;;;;;;;34.00;16.95;;;;;;;;;;5059371;28;25053;-74
2024/02/11 07:46:19;;;;;;;41.97;19.30;;;;;;;;;;5050886;28;25059;-73
2024/02/11 07:48:46;;;;;;;47.47;21.08;;;;;;;;;;5064366;28;25143;-77
2024/02/11 07:51:15;;;;;;;44.95;22.50;;;;;;;;;;5069025;28;25075;-79
2024/02/11 07:53:42;;;;;;;49.08;21.42;;;;;;;;;;5063578;28;25140;-77
2024/02/11 07:56:16;;;;;;;41.47;19.00;;;;;;;;;;5067586;28;25052;-77
2024/02/11 07:58:43;;;;;;;45.05;19.33;;;;;;;;;;5065158;28;25077;-77
2024/02/11 08:01:09;;;;;;;34.25;18.25;;;;;;;;;;5069233;28;25098;-76
2024/02/11 08:03:35;;;;;;;41.58;20.60;;;;;;;;;;5060615;28;25059;-78
2024/02/11 08:06:01;;;;;;;38.25;18.90;;;;;;;;;;5053043;28;25065;-74
2024/02/11 08:08:27;;;;;;;38.13;18.20;;;;;;;;;;5054470;28;25080;-76
2024/02/11 08:10:53;;;;;;;42.65;17.35;;;;;;;;;;5056197;28;25079;-79
2024/02/11 08:13:20;;;;;;;42.13;20.95;;;;;;;;;;5059454;28;25202;-74
2024/02/11 08:15:46;;;;;;;48.55;19.45;;;;;;;;;;5058712;28;25045;-76
2024/02/11 08:18:13;;;;;;;44.22;19.65;;;;;;;;;;5053829;28;25106;-77
2024/02/11 08:20:39;;;;;;;42.83;19.55;;;;;;;;;;5056976;28;25067;-78
2024/02/11 08:23:05;;;;;;;51.42;21.48;;;;;;;;;;5060156;28;25138;-75
2024/02/11 08:25:32;;;;;;;45.42;20.90;;;;;;;;;;5053280;28;25053;-75
2024/02/11 08:27:58;;;;;;;39.30;19.75;;;;;;;;;;5056291;28;25070;-76
2024/02/11 08:30:24;;;;;;;51.28;20.95;;;;;;;;;;5064195;28;25141;-73
2024/02/11 08:32:50;;;;;;;54.85;23.55;;;;;;;;;;5054835;28;25097;-72
2024/02/11 08:35:17;;;;;;;58.63;22.73;;;;;;;;;;5063982;28;25074;-78
2024/02/11 08:37:44;;;;;;;47.53;21.67;;;;;;;;;;5063537;28;25070;-74
2024/02/11 08:40:12;;;;;;;39.47;21.77;;;;;;;;;;5068444;28;25067;-79
2024/02/11 08:42:38;;;;;;;46.10;23.23;;;;;;;;;;5082790;28;25065;-81
2024/02/11 08:45:04;;;;;;;50.38;23.90;;;;;;;;;;5079947;28;25061;-81
2024/02/11 08:47:30;;;;;;;60.20;24.23;;;;;;;;;;5078549;28;25071;-80
2024/02/11 08:49:56;;;;;;;48.85;23.38;;;;;;;;;;5075060;28;25072;-75
2024/02/11 08:52:22;;;;;;;51.13;24.60;;;;;;;;;;5062933;28;25092;-74
2024/02/11 08:54:48;;;;;;;58.60;25.25;;;;;;;;;;5062801;28;25022;-75
2024/02/11 08:57:14;;;;;;;59.65;27.17;;;;;;;;;;5068649;28;25078;-76
2024/02/11 08:59:46;;;;;;;50.22;27.33;;;;;;;;;;5062838;28;25099;-72
2024/02/11 09:02:14;;;;;;;49.85;25.15;;;;;;;;;;5066540;28;25071;-75
2024/02/11 09:04:41;;;;;;;49.75;28.02;;;;;;;;;;5066086;28;25149;-75
2024/02/11 09:07:09;;;;;;;54.13;27.10;;;;;;;;;;5064143;28;25089;-76
2024/02/11 09:09:35;;;;;;;69.53;30.92;;;;;;;;;;5059138;28;25117;-75
2024/02/11 09:12:02;;;;;;;57.42;28.38;;;;;;;;;;5053877;28;25080;-75
2024/02/11 09:14:29;;;;;;;53.03;27.30;;;;;;;;;;5062450;28;25153;-74
2024/02/11 09:16:59;;;;;;;59.83;28.98;;;;;;;;;;5048546;28;25067;-74
2024/02/11 09:19:29;;;;;;;59.92;29.67;;;;;;;;;;5052442;28;25098;-73
2024/02/11 09:21:55;;;;;;;61.95;28.45;;;;;;;;;;5062867;28;25058;-75
2024/02/11 09:24:25;;;;;;;67.10;29.52;;;;;;;;;;5060801;28;25063;-73
2024/02/11 09:26:51;;;;;;;56.40;28.90;;;;;;;;;;5052372;28;25069;-74
2024/02/11 09:29:17;;;;;;;55.60;29.10;;;;;;;;;;5058901;28;25074;-74
2024/02/11 09:31:44;;;;;;;55.85;28.20;;;;;;;;;;5066505;28;25107;-75
2024/02/11 09:34:11;;;;;;;51.85;28.60;;;;;;;;;;5063335;28;25254;-76
2024/02/11 09:36:38;;;;;;;57.85;29.27;;;;;;;;;;5062435;28;25156;-74
2024/02/11 09:39:10;;;;;;;48.08;26.25;;;;;;;;;;5054626;28;25053;-75
2024/02/11 09:41:38;;;;;;;47.97;28.23;;;;;;;;;;5055417;28;25060;-74
2024/02/11 09:44:04;;;;;;;63.55;29.27;;;;;;;;;;5062583;28;25088;-74
2024/02/11 09:46:37;;;;;;;67.53;27.80;;;;;;;;;;5060782;28;25085;-76
2024/02/11 09:49:17;;;;;;;60.33;30.42;;;;;;;;;;5054780;28;25084;-75
2024/02/11 09:51:45;;;;;;;53.08;27.50;;;;;;;;;;5060644;28;25187;-74
2024/02/11 09:54:13;;;;;;;56.70;28.90;;;;;;;;;;5057474;28;25173;-73
2024/02/11 09:56:41;;;;;;;67.72;31.02;;;;;;;;;;5057784;28;25060;-75
2024/02/11 09:59:09;;;;;;;55.53;29.63;;;;;;;;;;5060382;28;25054;-75
2024/02/11 10:01:41;;;;;;;55.38;29.15;;;;;;;;;;5060628;28;25083;-77
2024/02/11 10:04:08;;;;;;;48.38;27.98;;;;;;;;;;5060309;28;25050;-74
2024/02/11 10:06:36;;;;;;;49.20;29.27;;;;;;;;;;5061683;28;25054;-77
2024/02/11 10:09:04;;;;;;;59.17;29.27;;;;;;;;;;5055205;28;25068;-74
2024/02/11 10:11:30;;;;;;;51.72;27.80;;;;;;;;;;5050914;28;25094;-75
2024/02/11 10:13:59;;;;;;;55.60;28.35;;;;;;;;;;5061942;28;25061;-77
2024/02/11 10:16:29;;;;;;;42.15;27.10;;;;;;;;;;5052568;28;25074;-75
2024/02/11 10:18:57;;;;;;;60.58;31.17;;;;;;;;;;5063933;28;25063;-75
2024/02/11 10:21:23;;;;;;;63.55;30.45;;;;;;;;;;5055355;28;25133;-77
2024/02/11 10:23:50;;;;;;;52.53;28.27;;;;;;;;;;5062278;28;25059;-75
2024/02/11 10:26:16;;;;;;;50.38;27.08;;;;;;;;;;5057040;28;25050;-75
2024/02/11 10:28:42;;;;;;;60.70;29.88;;;;;;;;;;5062254;28;25072;-74
2024/02/11 10:31:08;;;;;;;51.95;29.70;;;;;;;;;;5062243;28;25046;-75
2024/02/11 10:33:35;;;;;;;55.38;28.23;;;;;;;;;;5058312;28;25050;-75
2024/02/11 10:36:04;;;;;;;55.20;28.95;;;;;;;;;;5063413;28;25057;-74
2024/02/11 10:38:30;;;;;;;63.20;31.63;;;;;;;;;;5060380;28;25063;-73
2024/02/11 10:40:58;;;;;;;52.45;29.25;;;;;;;;;;5057095;28;25083;-76
2024/02/11 10:43:26;;;;;;;55.45;29.30;;;;;;;;;;5056896;28;25056;-75
2024/02/11 10:45:53;;;;;;;56.92;30.02;;;;;;;;;;5055677;28;25109;-73
2024/02/11 10:48:19;;;;;;;55.72;28.83;;;;;;;;;;5082450;28;25060;-76
2024/02/11 10:51:04;;;;;;;56.20;26.13;;;;;;;;;;5055532;28;25058;-75
2024/02/11 10:53:38;;;;;;;62.00;29.33;;;;;;;;;;5059977;28;25074;-73
2024/02/11 10:56:05;;;;;;;55.97;28.13;;;;;;;;;;5062432;28;25154;-73
2024/02/11 10:58:33;;;;;;;50.42;28.20;;;;;;;;;;5064438;28;25066;-74
2024/02/11 11:01:01;;;;;;;48.35;27.77;;;;;;;;;;5060949;28;25128;-79
2024/02/11 11:03:29;;;;;;;50.55;28.70;;;;;;;;;;5053169;28;25066;-73
2024/02/11 11:05:57;;;;;;;50.75;26.98;;;;;;;;;;5059190;28;25120;-73
2024/02/11 11:08:23;;;;;;;56.40;25.95;;;;;;;;;;5057566;28;25056;-74
2024/02/11 11:10:49;;;;;;;55.42;28.60;;;;;;;;;;5056237;28;25146;-76
2024/02/11 11:13:16;;;;;;;48.47;25.63;;;;;;;;;;5055211;28;25079;-75
2024/02/11 11:15:43;;;;;;;51.70;25.35;;;;;;;;;;5053701;28;25055;-73
2024/02/11 11:18:11;;;;;;;57.35;27.73;;;;;;;;;;5051391;28;25048;-74
2024/02/11 11:20:37;;;;;;;59.00;27.85;;;;;;;;;;5061232;28;25149;-74
2024/02/11 11:23:05;;;;;;;59.63;27.23;;;;;;;;;;5064992;28;25109;-74
2024/02/11 11:25:32;;;;;;;58.20;27.10;;;;;;;;;;5063934;28;25112;-74
2024/02/11 11:28:24;;;;;;;63.65;28.08;;;;;;;;;;5075935;28;25058;-72
2024/02/11 11:30:51;;;;;;;59.03;27.70;;;;;;;;;;5072638;28;25118;-73
2024/02/11 11:33:17;;;;;;;66.28;28.65;;;;;;;;;;5074869;28;25057;-74
2024/02/11 11:35:43;;;;;;;67.88;29.50;;;;;;;;;;5058962;28;25080;-73
2024/02/11 11:38:09;;;;;;;47.88;24.40;;;;;;;;;;5065458;28;25058;-74
2024/02/11 11:40:36;;;;;;;56.45;28.50;;;;;;;;;;5066117;28;25072;-74
2024/02/11 11:43:20;;;;;;;55.75;29.05;;;;;;;;;;5075782;28;25129;-75
2024/02/11 11:45:50;;;;;;;59.45;27.88;;;;;;;;;;5057802;28;25052;-74
2024/02/11 11:48:16;;;;;;;47.58;26.33;;;;;;;;;;5067099;28;25053;-75
2024/02/11 11:50:42;;;;;;;56.90;27.50;;;;;;;;;;5057455;28;25053;-75
2024/02/11 11:53:08;;;;;;;53.78;24.35;;;;;;;;;;5081447;28;25094;-76
2024/02/11 11:55:36;;;;;;;50.67;25.02;;;;;;;;;;5071172;28;25055;-75
2024/02/11 11:58:02;;;;;;;59.05;24.30;;;;;;;;;;5068565;28;25064;-76
2024/02/11 12:00:28;;;;;;;55.33;25.92;;;;;;;;;;5063612;28;25094;-75
2024/02/11 12:02:58;;;;;;;48.25;23.63;;;;;;;;;;5079504;28;25093;-75
2024/02/11 12:05:24;;;;;;;54.92;23.05;;;;;;;;;;5057158;28;25098;-76
2024/02/11 12:07:50;;;;;;;48.38;23.65;;;;;;;;;;5070825;28;25047;-74
2024/02/11 12:10:17;;;;;;;50.15;22.55;;;;;;;;;;5068465;28;25140;-75
2024/02/11 12:12:43;;;;;;;50.22;24.05;;;;;;;;;;5058664;28;25090;-73
2024/02/11 12:15:09;;;;;;;57.33;23.35;;;;;;;;;;5078635;28;25052;-76
2024/02/11 12:17:35;;;;;;;49.80;22.42;;;;;;;;;;5058856;28;25067;-73
2024/02/11 12:20:02;;;;;;;47.70;24.70;;;;;;;;;;5064954;28;25075;-73
2024/02/11 12:22:28;;;;;;;43.70;22.40;;;;;;;;;;5071874;28;25093;-75
2024/02/11 12:24:54;;;;;;;50.33;23.60;;;;;;;;;;5072504;28;25108;-74
2024/02/11 12:27:20;;;;;;;42.00;22.60;;;;;;;;;;5071331;28;25090;-74
2024/02/11 12:29:56;;;;;;;41.95;22.23;;;;;;;;;;5061373;28;25101;-73
2024/02/11 12:32:22;;;;;;;43.10;20.63;;;;;;;;;;5061370;28;25046;-75
2024/02/11 12:34:48;;;;;;;31.02;17.70;;;;;;;;;;5056193;28;25067;-75
2024/02/11 12:37:15;;;;;;;35.97;19.45;;;;;;;;;;5062412;28;25079;-74
2024/02/11 12:39:41;;;;;;;41.40;20.05;;;;;;;;;;5059635;28;25074;-76
2024/02/11 12:42:10;;;;;;;36.60;19.85;;;;;;;;;;5062863;28;25160;-75
2024/02/11 12:44:37;;;;;;;38.78;19.65;;;;;;;;;;5063004;28;25231;-74
2024/02/11 12:47:03;;;;;;;32.25;17.90;;;;;;;;;;5061590;28;25048;-75
2024/02/11 12:49:29;;;;;;;33.28;16.10;;;;;;;;;;5056124;28;25065;-73
2024/02/11 12:51:55;;;;;;;26.50;13.77;;;;;;;;;;5054658;28;25058;-74
2024/02/11 12:54:21;;;;;;;22.15;8.60;;;;;;;;;;5059696;28;25056;-72
2024/02/11 12:56:48;;;;;;;15.23;6.90;;;;;;;;;;5053027;28;25055;-73
2024/02/11 12:59:14;;;;;;;11.85;5.32;;;;;;;;;;5056005;28;25073;-73
2024/02/11 13:01:40;;;;;;;12.73;4.75;;;;;;;;;;5059972;28;25056;-73
2024/02/11 13:04:06;;;;;;;8.13;3.58;;;;;;;;;;5059519;28;25116;-72
2024/02/11 13:06:33;;;;;;;7.38;2.20;;;;;;;;;;5061443;28;25056;-73
2024/02/11 13:08:59;;;;;;;5.65;2.47;;;;;;;;;;5051822;28;25108;-75
2024/02/11 13:11:25;;;;;;;7.70;2.90;;;;;;;;;;5058324;28;25113;-73
2024/02/11 13:13:54;;;;;;;11.57;3.35;;;;;;;;;;5057142;28;25094;-72
2024/02/11 13:16:20;;;;;;;12.35;4.25;;;;;;;;;;5057750;28;25084;-74
2024/02/11 13:18:46;;;;;;;13.07;4.32;;;;;;;;;;5066539;28;25077;-74
2024/02/11 13:21:14;;;;;;;13.13;4.50;;;;;;;;;;5066732;28;25091;-74
2024/02/11 13:23:40;;;;;;;9.75;4.22;;;;;;;;;;5061777;28;25063;-74
2024/02/11 13:26:09;;;;;;;14.10;6.13;;;;;;;;;;5062553;28;25073;-74
2024/02/11 13:28:36;;;;;;;14.23;6.82;;;;;;;;;;5069534;28;25080;-72
2024/02/11 13:31:03;;;;;;;15.55;7.30;;;;;;;;;;5064290;28;25064;-73
2024/02/11 13:33:32;;;;;;;16.67;8.80;;;;;;;;;;5067341;28;25071;-74
2024/02/11 13:35:59;;;;;;;17.83;8.43;;;;;;;;;;5065555;28;25065;-73
2024/02/11 13:38:25;;;;;;;18.77;9.18;;;;;;;;;;5060886;28;25078;-73
2024/02/11 13:40:52;;;;;;;12.93;6.57;;;;;;;;;;5062626;28;25066;-74
2024/02/11 13:43:18;;;;;;;15.65;7.10;;;;;;;;;;5059991;28;25112;-75
2024/02/11 13:45:44;;;;;;;13.60;6.60;;;;;;;;;;5062292;28;25137;-76
2024/02/11 13:48:14;;;;;;;14.13;5.80;;;;;;;;;;5057948;28;25057;-75
2024/02/11 13:50:41;;;;;;;13.68;6.28;;;;;;;;;;5055485;28;25061;-76
2024/02/11 13:53:08;;;;;;;19.45;6.85;;;;;;;;;;5053638;28;25168;-74
2024/02/11 13:55:34;;;;;;;15.70;7.22;;;;;;;;;;5063575;28;25059;-72
2024/02/11 13:58:00;;;;;;;16.73;7.97;;;;;;;;;;5061218;28;25139;-72
2024/02/11 14:00:26;;;;;;;18.65;8.52;;;;;;;;;;5065716;28;25061;-73
2024/02/11 14:02:52;;;;;;;18.10;8.73;;;;;;;;;;5064732;28;25063;-73
2024/02/11 14:05:18;;;;;;;24.67;10.25;;;;;;;;;;5065760;28;25077;-78
2024/02/11 14:07:44;;;;;;;22.77;10.15;;;;;;;;;;5066376;28;25066;-73
2024/02/11 14:10:11;;;;;;;17.85;9.20;;;;;;;;;;5075621;28;25087;-71
2024/02/11 14:12:39;;;;;;;23.70;10.85;;;;;;;;;;5078257;28;25072;-74
2024/02/11 14:15:11;;;;;;;21.67;9.57;;;;;;;;;;5065359;28;25085;-74
2024/02/11 14:17:42;;;;;;;20.70;10.65;;;;;;;;;;5062383;28;25072;-76
2024/02/11 14:20:11;;;;;;;18.23;10.38;;;;;;;;;;5059625;28;25056;-74